sensor_id;sensor_type;location;lat;lon;timestamp;temperature;humidity
74946;HTU21D;63509;45.250;38.102;2022-12-18T00:01:37;9.96;75.17
74946;HTU21D;63509;45.250;38.102;2022-12-18T00:04:05;10.00;75.20
74946;HTU21D;63509;45.250;38.102;2022-12-18T00:06:31;10.04;75.12
74946;HTU21D;63509;45.250;38.102;2022-12-18T00:09:00;10.04;75.10
74946;HTU21D;63509;45.250;38.102;2022-12-18T00:11:28;10.03;75.03
74946;HTU21D;63509;45.250;38.102;2022-12-18T00:13:56;10.03;74.99
74946;HTU21D;63509;45.250;38.102;2022-12-18T00:16:24;10.01;74.96
74946;HTU21D;63509;45.250;38.102;2022-12-18T00:18:53;9.98;74.97
74946;HTU21D;63509;45.250;38.102;2022-12-18T00:21:20;9.99;75.03
74946;HTU21D;63509;45.250;38.102;2022-12-18T00:23:47;10.01;75.02
74946;HTU21D;63509;45.250;38.102;2022-12-18T00:26:17;10.06;75.02
74946;HTU21D;63509;45.250;38.102;2022-12-18T00:28:44;10.11;75.06
74946;HTU21D;63509;45.250;38.102;2022-12-18T00:31:13;10.19;75.00
74946;HTU21D;63509;45.250;38.102;2022-12-18T00:33:40;10.27;74.96
74946;HTU21D;63509;45.250;38.102;2022-12-18T00:36:18;10.37;74.88
74946;HTU21D;63509;45.250;38.102;2022-12-18T00:38:45;10.46;74.78
74946;HTU21D;63509;45.250;38.102;2022-12-18T00:41:13;10.54;74.69
74946;HTU21D;63509;45.250;38.102;2022-12-18T00:43:39;10.55;74.57
74946;HTU21D;63509;45.250;38.102;2022-12-18T00:46:05;10.54;74.54
74946;HTU21D;63509;45.250;38.102;2022-12-18T00:48:32;10.54;74.49
74946;HTU21D;63509;45.250;38.102;2022-12-18T00:50:58;10.52;74.45
74946;HTU21D;63509;45.250;38.102;2022-12-18T00:53:24;10.51;74.43
74946;HTU21D;63509;45.250;38.102;2022-12-18T00:55:50;10.49;74.34
74946;HTU21D;63509;45.250;38.102;2022-12-18T00:58:16;10.45;74.31
74946;HTU21D;63509;45.250;38.102;2022-12-18T01:00:43;10.41;74.38
74946;HTU21D;63509;45.250;38.102;2022-12-18T01:03:13;10.37;74.41
74946;HTU21D;63509;45.250;38.102;2022-12-18T01:05:41;10.34;74.41
74946;HTU21D;63509;45.250;38.102;2022-12-18T01:08:07;10.31;74.41
74946;HTU21D;63509;45.250;38.102;2022-12-18T01:10:33;10.29;74.45
74946;HTU21D;63509;45.250;38.102;2022-12-18T01:12:59;10.28;74.47
74946;HTU21D;63509;45.250;38.102;2022-12-18T01:15:25;10.25;74.45
74946;HTU21D;63509;45.250;38.102;2022-12-18T01:17:52;10.23;74.49
74946;HTU21D;63509;45.250;38.102;2022-12-18T01:20:19;10.20;74.45
74946;HTU21D;63509;45.250;38.102;2022-12-18T01:22:45;10.19;74.38
74946;HTU21D;63509;45.250;38.102;2022-12-18T01:25:11;10.13;74.41
74946;HTU21D;63509;45.250;38.102;2022-12-18T01:27:37;10.10;74.50
74946;HTU21D;63509;45.250;38.102;2022-12-18T01:30:04;10.07;74.52
74946;HTU21D;63509;45.250;38.102;2022-12-18T01:32:31;10.06;74.48
74946;HTU21D;63509;45.250;38.102;2022-12-18T01:34:57;10.01;74.51
74946;HTU21D;63509;45.250;38.102;2022-12-18T01:37:23;9.98;74.52
74946;HTU21D;63509;45.250;38.102;2022-12-18T01:39:50;9.95;74.54
74946;HTU21D;63509;45.250;38.102;2022-12-18T01:42:19;9.91;74.58
74946;HTU21D;63509;45.250;38.102;2022-12-18T01:44:57;9.86;74.64
74946;HTU21D;63509;45.250;38.102;2022-12-18T01:50:15;9.82;74.78
74946;HTU21D;63509;45.250;38.102;2022-12-18T01:52:47;9.83;74.80
74946;HTU21D;63509;45.250;38.102;2022-12-18T01:55:17;9.84;74.83
74946;HTU21D;63509;45.250;38.102;2022-12-18T01:57:43;9.86;74.81
74946;HTU21D;63509;45.250;38.102;2022-12-18T02:00:14;9.88;74.85
74946;HTU21D;63509;45.250;38.102;2022-12-18T02:02:43;9.92;74.88
74946;HTU21D;63509;45.250;38.102;2022-12-18T02:05:13;9.97;74.93
74946;HTU21D;63509;45.250;38.102;2022-12-18T02:10:31;10.08;74.89
74946;HTU21D;63509;45.250;38.102;2022-12-18T02:13:30;10.21;74.85
74946;HTU21D;63509;45.250;38.102;2022-12-18T02:18:47;10.46;74.75
74946;HTU21D;63509;45.250;38.102;2022-12-18T02:21:34;10.58;74.63
74946;HTU21D;63509;45.250;38.102;2022-12-18T02:27:05;10.73;74.38
74946;HTU21D;63509;45.250;38.102;2022-12-18T02:29:44;10.77;74.30
74946;HTU21D;63509;45.250;38.102;2022-12-18T02:32:15;10.77;74.19
74946;HTU21D;63509;45.250;38.102;2022-12-18T02:34:44;10.78;74.14
74946;HTU21D;63509;45.250;38.102;2022-12-18T02:37:16;10.77;74.11
74946;HTU21D;63509;45.250;38.102;2022-12-18T02:39:46;10.72;74.11
74946;HTU21D;63509;45.250;38.102;2022-12-18T02:42:14;10.71;74.15
74946;HTU21D;63509;45.250;38.102;2022-12-18T02:44:43;10.69;74.12
74946;HTU21D;63509;45.250;38.102;2022-12-18T02:47:12;10.69;74.11
74946;HTU21D;63509;45.250;38.102;2022-12-18T02:52:48;10.68;74.13
74946;HTU21D;63509;45.250;38.102;2022-12-18T02:58:45;10.64;74.11
74946;HTU21D;63509;45.250;38.102;2022-12-18T03:01:01;10.59;74.13
74946;HTU21D;63509;45.250;38.102;2022-12-18T03:03:39;10.57;74.11
74946;HTU21D;63509;45.250;38.102;2022-12-18T03:06:21;10.54;74.09
74946;HTU21D;63509;45.250;38.102;2022-12-18T03:08:52;10.50;74.13
74946;HTU21D;63509;45.250;38.102;2022-12-18T03:11:20;10.46;74.15
74946;HTU21D;63509;45.250;38.102;2022-12-18T03:14:10;10.42;74.18
74946;HTU21D;63509;45.250;38.102;2022-12-18T03:16:39;10.40;74.17
74946;HTU21D;63509;45.250;38.102;2022-12-18T03:19:12;10.38;74.19
74946;HTU21D;63509;45.250;38.102;2022-12-18T03:21:48;10.35;74.21
74946;HTU21D;63509;45.250;38.102;2022-12-18T03:24:17;10.30;74.24
74946;HTU21D;63509;45.250;38.102;2022-12-18T03:26:49;10.28;74.36
74946;HTU21D;63509;45.250;38.102;2022-12-18T03:29:22;10.26;74.38
74946;HTU21D;63509;45.250;38.102;2022-12-18T03:31:56;10.28;74.39
74946;HTU21D;63509;45.250;38.102;2022-12-18T03:34:29;10.27;74.35
74946;HTU21D;63509;45.250;38.102;2022-12-18T03:36:58;10.27;74.31
74946;HTU21D;63509;45.250;38.102;2022-12-18T03:39:24;10.25;74.34
74946;HTU21D;63509;45.250;38.102;2022-12-18T03:42:08;10.24;74.32
74946;HTU21D;63509;45.250;38.102;2022-12-18T03:45:27;10.21;74.31
74946;HTU21D;63509;45.250;38.102;2022-12-18T03:50:57;10.20;74.38
74946;HTU21D;63509;45.250;38.102;2022-12-18T03:56:04;10.22;74.35
74946;HTU21D;63509;45.250;38.102;2022-12-18T03:58:37;10.26;74.35
74946;HTU21D;63509;45.250;38.102;2022-12-18T04:01:16;10.29;74.33
74946;HTU21D;63509;45.250;38.102;2022-12-18T04:03:44;10.30;74.25
74946;HTU21D;63509;45.250;38.102;2022-12-18T04:06:12;10.34;74.21
74946;HTU21D;63509;45.250;38.102;2022-12-18T04:08:40;10.35;74.18
74946;HTU21D;63509;45.250;38.102;2022-12-18T04:11:09;10.37;74.12
74946;HTU21D;63509;45.250;38.102;2022-12-18T04:13:38;10.38;74.10
74946;HTU21D;63509;45.250;38.102;2022-12-18T04:16:14;10.42;74.06
74946;HTU21D;63509;45.250;38.102;2022-12-18T04:18:42;10.44;74.02
74946;HTU21D;63509;45.250;38.102;2022-12-18T04:21:10;10.48;73.98
74946;HTU21D;63509;45.250;38.102;2022-12-18T04:23:37;10.52;73.96
74946;HTU21D;63509;45.250;38.102;2022-12-18T04:26:03;10.57;73.89
74946;HTU21D;63509;45.250;38.102;2022-12-18T04:28:40;10.58;73.87
74946;HTU21D;63509;45.250;38.102;2022-12-18T04:31:06;10.62;73.77
74946;HTU21D;63509;45.250;38.102;2022-12-18T04:33:32;10.63;73.77
74946;HTU21D;63509;45.250;38.102;2022-12-18T04:35:59;10.60;73.73
74946;HTU21D;63509;45.250;38.102;2022-12-18T04:38:25;10.58;73.69
74946;HTU21D;63509;45.250;38.102;2022-12-18T04:41:00;10.55;73.80
74946;HTU21D;63509;45.250;38.102;2022-12-18T04:43:27;10.50;73.73
74946;HTU21D;63509;45.250;38.102;2022-12-18T04:45:52;10.44;73.78
74946;HTU21D;63509;45.250;38.102;2022-12-18T04:48:19;10.40;73.83
74946;HTU21D;63509;45.250;38.102;2022-12-18T04:50:46;10.37;73.88
74946;HTU21D;63509;45.250;38.102;2022-12-18T04:53:12;10.36;73.86
74946;HTU21D;63509;45.250;38.102;2022-12-18T04:55:38;10.34;73.84
74946;HTU21D;63509;45.250;38.102;2022-12-18T04:58:04;10.29;73.89
74946;HTU21D;63509;45.250;38.102;2022-12-18T05:00:30;10.26;73.93
74946;HTU21D;63509;45.250;38.102;2022-12-18T05:02:57;10.23;73.94
74946;HTU21D;63509;45.250;38.102;2022-12-18T05:05:23;10.19;73.92
74946;HTU21D;63509;45.250;38.102;2022-12-18T05:07:49;10.15;73.95
74946;HTU21D;63509;45.250;38.102;2022-12-18T05:10:15;10.11;73.99
74946;HTU21D;63509;45.250;38.102;2022-12-18T05:12:41;10.09;73.98
74946;HTU21D;63509;45.250;38.102;2022-12-18T05:15:28;10.05;74.01
74946;HTU21D;63509;45.250;38.102;2022-12-18T05:17:54;10.01;74.01
74946;HTU21D;63509;45.250;38.102;2022-12-18T05:20:20;9.96;74.12
74946;HTU21D;63509;45.250;38.102;2022-12-18T05:22:47;9.93;74.18
74946;HTU21D;63509;45.250;38.102;2022-12-18T05:25:13;9.92;74.23
74946;HTU21D;63509;45.250;38.102;2022-12-18T05:27:39;9.91;74.23
74946;HTU21D;63509;45.250;38.102;2022-12-18T05:30:05;9.88;74.29
74946;HTU21D;63509;45.250;38.102;2022-12-18T05:32:31;9.85;74.32
74946;HTU21D;63509;45.250;38.102;2022-12-18T05:34:57;9.85;74.34
74946;HTU21D;63509;45.250;38.102;2022-12-18T05:37:23;9.85;74.31
74946;HTU21D;63509;45.250;38.102;2022-12-18T05:39:49;9.84;74.31
74946;HTU21D;63509;45.250;38.102;2022-12-18T05:42:15;9.84;74.38
74946;HTU21D;63509;45.250;38.102;2022-12-18T05:44:43;9.83;74.41
74946;HTU21D;63509;45.250;38.102;2022-12-18T05:47:09;9.85;74.43
74946;HTU21D;63509;45.250;38.102;2022-12-18T05:49:35;9.89;74.49
74946;HTU21D;63509;45.250;38.102;2022-12-18T05:52:01;9.91;74.52
74946;HTU21D;63509;45.250;38.102;2022-12-18T05:54:28;9.97;74.57
74946;HTU21D;63509;45.250;38.102;2022-12-18T05:56:54;10.03;74.58
74946;HTU21D;63509;45.250;38.102;2022-12-18T05:59:20;10.08;74.59
74946;HTU21D;63509;45.250;38.102;2022-12-18T06:01:46;10.15;74.60
74946;HTU21D;63509;45.250;38.102;2022-12-18T06:04:12;10.22;74.62
74946;HTU21D;63509;45.250;38.102;2022-12-18T06:06:38;10.28;74.65
74946;HTU21D;63509;45.250;38.102;2022-12-18T06:09:04;10.38;74.68
74946;HTU21D;63509;45.250;38.102;2022-12-18T06:11:36;10.50;74.67
74946;HTU21D;63509;45.250;38.102;2022-12-18T06:14:04;10.60;74.64
74946;HTU21D;63509;45.250;38.102;2022-12-18T06:16:30;10.71;74.60
74946;HTU21D;63509;45.250;38.102;2022-12-18T06:19:01;10.83;74.54
74946;HTU21D;63509;45.250;38.102;2022-12-18T06:21:28;10.93;74.50
74946;HTU21D;63509;45.250;38.102;2022-12-18T06:23:55;11.02;74.51
74946;HTU21D;63509;45.250;38.102;2022-12-18T06:26:21;11.14;74.55
74946;HTU21D;63509;45.250;38.102;2022-12-18T06:28:47;11.28;74.78
74946;HTU21D;63509;45.250;38.102;2022-12-18T06:31:13;11.42;74.76
74946;HTU21D;63509;45.250;38.102;2022-12-18T06:33:39;11.56;74.80
74946;HTU21D;63509;45.250;38.102;2022-12-18T06:36:10;11.70;74.78
74946;HTU21D;63509;45.250;38.102;2022-12-18T06:38:38;11.83;74.73
74946;HTU21D;63509;45.250;38.102;2022-12-18T06:41:14;11.96;74.62
74946;HTU21D;63509;45.250;38.102;2022-12-18T06:43:41;12.04;74.62
74946;HTU21D;63509;45.250;38.102;2022-12-18T06:46:07;12.13;74.51
74946;HTU21D;63509;45.250;38.102;2022-12-18T06:48:34;12.20;74.44
74946;HTU21D;63509;45.250;38.102;2022-12-18T06:51:00;12.26;74.38
74946;HTU21D;63509;45.250;38.102;2022-12-18T06:53:28;12.32;74.36
74946;HTU21D;63509;45.250;38.102;2022-12-18T06:56:05;12.36;74.34
74946;HTU21D;63509;45.250;38.102;2022-12-18T06:58:31;12.42;74.25
74946;HTU21D;63509;45.250;38.102;2022-12-18T07:01:02;12.46;74.22
74946;HTU21D;63509;45.250;38.102;2022-12-18T07:03:29;12.51;74.31
74946;HTU21D;63509;45.250;38.102;2022-12-18T07:05:55;12.55;74.33
74946;HTU21D;63509;45.250;38.102;2022-12-18T07:08:21;12.60;74.44
74946;HTU21D;63509;45.250;38.102;2022-12-18T07:10:47;12.66;74.49
74946;HTU21D;63509;45.250;38.102;2022-12-18T07:13:15;12.72;74.57
74946;HTU21D;63509;45.250;38.102;2022-12-18T07:15:42;12.77;74.59
74946;HTU21D;63509;45.250;38.102;2022-12-18T07:18:08;12.84;74.49
74946;HTU21D;63509;45.250;38.102;2022-12-18T07:20:34;12.93;74.54
74946;HTU21D;63509;45.250;38.102;2022-12-18T07:23:02;13.02;74.51
74946;HTU21D;63509;45.250;38.102;2022-12-18T07:25:29;13.14;74.43
74946;HTU21D;63509;45.250;38.102;2022-12-18T07:27:55;13.26;74.35
74946;HTU21D;63509;45.250;38.102;2022-12-18T07:30:21;13.40;74.34
74946;HTU21D;63509;45.250;38.102;2022-12-18T07:32:47;13.55;74.25
74946;HTU21D;63509;45.250;38.102;2022-12-18T07:35:13;13.71;74.19
74946;HTU21D;63509;45.250;38.102;2022-12-18T07:37:39;13.86;74.26
74946;HTU21D;63509;45.250;38.102;2022-12-18T07:40:05;14.00;74.22
74946;HTU21D;63509;45.250;38.102;2022-12-18T07:42:32;14.14;73.97
74946;HTU21D;63509;45.250;38.102;2022-12-18T07:44:59;14.26;73.89
74946;HTU21D;63509;45.250;38.102;2022-12-18T07:47:26;14.37;73.74
74946;HTU21D;63509;45.250;38.102;2022-12-18T07:49:52;14.47;73.69
74946;HTU21D;63509;45.250;38.102;2022-12-18T07:52:18;14.55;73.51
74946;HTU21D;63509;45.250;38.102;2022-12-18T07:54:44;14.60;73.48
74946;HTU21D;63509;45.250;38.102;2022-12-18T07:57:10;14.68;73.43
74946;HTU21D;63509;45.250;38.102;2022-12-18T07:59:36;14.71;73.40
74946;HTU21D;63509;45.250;38.102;2022-12-18T08:02:02;14.74;73.51
74946;HTU21D;63509;45.250;38.102;2022-12-18T08:04:28;14.77;73.32
74946;HTU21D;63509;45.250;38.102;2022-12-18T08:06:54;14.77;73.39
74946;HTU21D;63509;45.250;38.102;2022-12-18T08:09:20;14.78;73.41
74946;HTU21D;63509;45.250;38.102;2022-12-18T08:11:46;14.79;73.41
74946;HTU21D;63509;45.250;38.102;2022-12-18T08:14:12;14.78;73.19
74946;HTU21D;63509;45.250;38.102;2022-12-18T08:16:40;14.78;73.14
74946;HTU21D;63509;45.250;38.102;2022-12-18T08:19:06;14.74;73.04
74946;HTU21D;63509;45.250;38.102;2022-12-18T08:21:32;14.72;73.07
74946;HTU21D;63509;45.250;38.102;2022-12-18T08:23:59;14.68;73.00
74946;HTU21D;63509;45.250;38.102;2022-12-18T08:26:27;14.67;73.07
74946;HTU21D;63509;45.250;38.102;2022-12-18T08:28:56;14.63;73.15
74946;HTU21D;63509;45.250;38.102;2022-12-18T08:31:22;14.62;73.28
74946;HTU21D;63509;45.250;38.102;2022-12-18T08:33:49;14.60;73.25
74946;HTU21D;63509;45.250;38.102;2022-12-18T08:36:16;14.59;73.25
74946;HTU21D;63509;45.250;38.102;2022-12-18T08:38:42;14.59;73.32
74946;HTU21D;63509;45.250;38.102;2022-12-18T08:41:13;14.59;73.43
74946;HTU21D;63509;45.250;38.102;2022-12-18T08:43:40;14.60;73.71
74946;HTU21D;63509;45.250;38.102;2022-12-18T08:46:26;14.64;73.83
74946;HTU21D;63509;45.250;38.102;2022-12-18T08:48:54;14.69;73.80
74946;HTU21D;63509;45.250;38.102;2022-12-18T08:51:23;14.74;73.88
74946;HTU21D;63509;45.250;38.102;2022-12-18T08:53:49;14.80;74.12
74946;HTU21D;63509;45.250;38.102;2022-12-18T08:56:15;14.86;74.18
74946;HTU21D;63509;45.250;38.102;2022-12-18T08:58:42;14.94;73.98
74946;HTU21D;63509;45.250;38.102;2022-12-18T09:01:10;14.99;74.02
74946;HTU21D;63509;45.250;38.102;2022-12-18T09:03:38;15.01;73.86
74946;HTU21D;63509;45.250;38.102;2022-12-18T09:06:04;15.00;73.69
74946;HTU21D;63509;45.250;38.102;2022-12-18T09:08:31;14.99;73.63
74946;HTU21D;63509;45.250;38.102;2022-12-18T09:10:57;14.95;73.59
74946;HTU21D;63509;45.250;38.102;2022-12-18T09:13:23;14.88;73.59
74946;HTU21D;63509;45.250;38.102;2022-12-18T09:15:51;14.82;73.67
74946;HTU21D;63509;45.250;38.102;2022-12-18T09:18:19;14.78;73.86
74946;HTU21D;63509;45.250;38.102;2022-12-18T09:20:46;14.72;74.03
74946;HTU21D;63509;45.250;38.102;2022-12-18T09:23:12;14.69;74.22
74946;HTU21D;63509;45.250;38.102;2022-12-18T09:25:38;14.64;74.38
74946;HTU21D;63509;45.250;38.102;2022-12-18T09:28:11;14.62;74.71
74946;HTU21D;63509;45.250;38.102;2022-12-18T09:30:39;14.63;74.87
74946;HTU21D;63509;45.250;38.102;2022-12-18T09:33:05;14.65;75.08
74946;HTU21D;63509;45.250;38.102;2022-12-18T09:35:31;14.67;75.10
74946;HTU21D;63509;45.250;38.102;2022-12-18T09:37:57;14.67;75.18
74946;HTU21D;63509;45.250;38.102;2022-12-18T09:40:26;14.67;75.34
74946;HTU21D;63509;45.250;38.102;2022-12-18T09:42:58;14.64;75.47
74946;HTU21D;63509;45.250;38.102;2022-12-18T09:45:25;14.64;75.62
74946;HTU21D;63509;45.250;38.102;2022-12-18T09:47:53;14.62;75.67
74946;HTU21D;63509;45.250;38.102;2022-12-18T09:50:29;14.62;75.85
74946;HTU21D;63509;45.250;38.102;2022-12-18T09:53:04;14.57;75.90
74946;HTU21D;63509;45.250;38.102;2022-12-18T09:55:37;14.54;75.87
74946;HTU21D;63509;45.250;38.102;2022-12-18T09:58:35;14.47;75.77
74946;HTU21D;63509;45.250;38.102;2022-12-18T10:00:59;14.34;75.81
74946;HTU21D;63509;45.250;38.102;2022-12-18T10:03:25;14.25;75.90
74946;HTU21D;63509;45.250;38.102;2022-12-18T10:06:07;14.17;75.88
74946;HTU21D;63509;45.250;38.102;2022-12-18T10:08:49;14.08;75.97
74946;HTU21D;63509;45.250;38.102;2022-12-18T10:11:38;13.98;76.05
74946;HTU21D;63509;45.250;38.102;2022-12-18T10:14:49;13.90;76.18
74946;HTU21D;63509;45.250;38.102;2022-12-18T10:19:56;13.74;76.41
74946;HTU21D;63509;45.250;38.102;2022-12-18T10:25:12;13.55;76.48
74946;HTU21D;63509;45.250;38.102;2022-12-18T10:27:40;13.50;76.57
74946;HTU21D;63509;45.250;38.102;2022-12-18T10:30:15;13.43;76.57
74946;HTU21D;63509;45.250;38.102;2022-12-18T10:32:42;13.34;76.70
74946;HTU21D;63509;45.250;38.102;2022-12-18T10:35:22;13.27;76.73
74946;HTU21D;63509;45.250;38.102;2022-12-18T10:38:22;13.20;76.60
74946;HTU21D;63509;45.250;38.102;2022-12-18T10:43:19;13.02;77.02
74946;HTU21D;63509;45.250;38.102;2022-12-18T10:45:59;12.92;76.97
74946;HTU21D;63509;45.250;38.102;2022-12-18T10:48:26;12.86;77.23
74946;HTU21D;63509;45.250;38.102;2022-12-18T10:50:53;12.77;77.29
74946;HTU21D;63509;45.250;38.102;2022-12-18T10:53:23;12.72;77.41
74946;HTU21D;63509;45.250;38.102;2022-12-18T10:55:52;12.66;77.47
74946;HTU21D;63509;45.250;38.102;2022-12-18T10:58:24;12.62;77.15
74946;HTU21D;63509;45.250;38.102;2022-12-18T11:01:06;12.53;77.34
74946;HTU21D;63509;45.250;38.102;2022-12-18T11:03:37;12.47;77.66
74946;HTU21D;63509;45.250;38.102;2022-12-18T11:06:17;12.42;77.67
74946;HTU21D;63509;45.250;38.102;2022-12-18T11:09:00;12.31;77.66
74946;HTU21D;63509;45.250;38.102;2022-12-18T11:11:28;12.22;77.85
74946;HTU21D;63509;45.250;38.102;2022-12-18T11:14:11;12.16;77.74
74946;HTU21D;63509;45.250;38.102;2022-12-18T11:16:49;12.05;77.85
74946;HTU21D;63509;45.250;38.102;2022-12-18T11:19:35;11.96;78.05
74946;HTU21D;63509;45.250;38.102;2022-12-18T11:22:17;11.87;78.16
74946;HTU21D;63509;45.250;38.102;2022-12-18T11:27:38;11.66;78.24
74946;HTU21D;63509;45.250;38.102;2022-12-18T11:32:46;11.48;78.33
74946;HTU21D;63509;45.250;38.102;2022-12-18T11:35:59;11.41;78.33
74946;HTU21D;63509;45.250;38.102;2022-12-18T11:38:22;11.30;78.27
74946;HTU21D;63509;45.250;38.102;2022-12-18T11:46:19;11.09;78.31
74946;HTU21D;63509;45.250;38.102;2022-12-18T11:52:09;10.96;78.35
74946;HTU21D;63509;45.250;38.102;2022-12-18T11:54:30;10.86;78.40
74946;HTU21D;63509;45.250;38.102;2022-12-18T11:57:25;10.81;78.30
74946;HTU21D;63509;45.250;38.102;2022-12-18T12:00:20;10.74;78.33
74946;HTU21D;63509;45.250;38.102;2022-12-18T12:08:01;10.59;78.39
74946;HTU21D;63509;45.250;38.102;2022-12-18T12:10:41;10.56;78.37
74946;HTU21D;63509;45.250;38.102;2022-12-18T12:13:58;10.52;78.36
74946;HTU21D;63509;45.250;38.102;2022-12-18T12:16:37;10.44;78.37
74946;HTU21D;63509;45.250;38.102;2022-12-18T12:27:50;10.19;78.37
74946;HTU21D;63509;45.250;38.102;2022-12-18T12:30:22;10.13;78.49
74946;HTU21D;63509;45.250;38.102;2022-12-18T12:33:12;10.13;78.51
74946;HTU21D;63509;45.250;38.102;2022-12-18T12:35:57;10.10;78.55
74946;HTU21D;63509;45.250;38.102;2022-12-18T12:41:06;10.08;78.50
74946;HTU21D;63509;45.250;38.102;2022-12-18T12:43:56;10.05;78.51
74946;HTU21D;63509;45.250;38.102;2022-12-18T12:46:24;10.04;78.53
74946;HTU21D;63509;45.250;38.102;2022-12-18T12:48:56;10.00;78.51
74946;HTU21D;63509;45.250;38.102;2022-12-18T12:51:28;9.96;78.48
74946;HTU21D;63509;45.250;38.102;2022-12-18T12:53:57;9.92;78.51
74946;HTU21D;63509;45.250;38.102;2022-12-18T12:56:29;9.88;78.50
74946;HTU21D;63509;45.250;38.102;2022-12-18T12:59:18;9.83;78.50
74946;HTU21D;63509;45.250;38.102;2022-12-18T13:02:22;9.78;78.42
74946;HTU21D;63509;45.250;38.102;2022-12-18T13:05:01;9.74;78.48
74946;HTU21D;63509;45.250;38.102;2022-12-18T13:07:51;9.69;78.46
74946;HTU21D;63509;45.250;38.102;2022-12-18T13:13:03;9.62;78.47
74946;HTU21D;63509;45.250;38.102;2022-12-18T13:15:47;9.55;78.43
74946;HTU21D;63509;45.250;38.102;2022-12-18T13:18:22;9.49;78.52
74946;HTU21D;63509;45.250;38.102;2022-12-18T13:20:51;9.45;78.59
74946;HTU21D;63509;45.250;38.102;2022-12-18T13:23:35;9.41;78.60
74946;HTU21D;63509;45.250;38.102;2022-12-18T13:34:23;9.26;78.55
74946;HTU21D;63509;45.250;38.102;2022-12-18T13:36:50;9.22;78.57
74946;HTU21D;63509;45.250;38.102;2022-12-18T13:44:35;9.07;78.61
74946;HTU21D;63509;45.250;38.102;2022-12-18T13:47:03;9.04;78.64
74946;HTU21D;63509;45.250;38.102;2022-12-18T13:49:38;9.01;78.65
74946;HTU21D;63509;45.250;38.102;2022-12-18T13:52:22;8.96;78.56
74946;HTU21D;63509;45.250;38.102;2022-12-18T13:54:57;8.91;78.56
74946;HTU21D;63509;45.250;38.102;2022-12-18T13:57:33;8.83;78.63
74946;HTU21D;63509;45.250;38.102;2022-12-18T14:02:48;8.75;78.66
74946;HTU21D;63509;45.250;38.102;2022-12-18T14:05:30;8.71;78.62
74946;HTU21D;63509;45.250;38.102;2022-12-18T14:08:03;8.65;78.56
74946;HTU21D;63509;45.250;38.102;2022-12-18T14:10:30;8.58;78.56
74946;HTU21D;63509;45.250;38.102;2022-12-18T14:12:57;8.51;78.60
74946;HTU21D;63509;45.250;38.102;2022-12-18T14:15:41;8.47;78.60
74946;HTU21D;63509;45.250;38.102;2022-12-18T14:20:48;8.41;78.58
74946;HTU21D;63509;45.250;38.102;2022-12-18T14:23:44;8.35;78.53
74946;HTU21D;63509;45.250;38.102;2022-12-18T14:26:30;8.32;78.56
74946;HTU21D;63509;45.250;38.102;2022-12-18T14:29:17;8.28;78.56
74946;HTU21D;63509;45.250;38.102;2022-12-18T14:31:43;8.24;78.53
74946;HTU21D;63509;45.250;38.102;2022-12-18T14:34:16;8.20;78.59
74946;HTU21D;63509;45.250;38.102;2022-12-18T14:36:52;8.14;78.56
74946;HTU21D;63509;45.250;38.102;2022-12-18T14:39:18;8.13;78.54
74946;HTU21D;63509;45.250;38.102;2022-12-18T14:41:44;8.09;78.60
74946;HTU21D;63509;45.250;38.102;2022-12-18T14:44:12;8.09;78.53
74946;HTU21D;63509;45.250;38.102;2022-12-18T14:46:41;8.09;78.49
74946;HTU21D;63509;45.250;38.102;2022-12-18T14:49:29;8.07;78.46
74946;HTU21D;63509;45.250;38.102;2022-12-18T14:52:03;8.01;78.41
74946;HTU21D;63509;45.250;38.102;2022-12-18T14:54:31;7.98;78.48
74946;HTU21D;63509;45.250;38.102;2022-12-18T14:57:02;7.97;78.41
74946;HTU21D;63509;45.250;38.102;2022-12-18T14:59:29;7.94;78.43
74946;HTU21D;63509;45.250;38.102;2022-12-18T15:04:38;7.88;78.40
74946;HTU21D;63509;45.250;38.102;2022-12-18T15:07:19;7.87;78.44
74946;HTU21D;63509;45.250;38.102;2022-12-18T15:12:36;7.84;78.37
74946;HTU21D;63509;45.250;38.102;2022-12-18T15:15:04;7.83;78.36
74946;HTU21D;63509;45.250;38.102;2022-12-18T15:17:31;7.82;78.42
74946;HTU21D;63509;45.250;38.102;2022-12-18T15:20:02;7.81;78.36
74946;HTU21D;63509;45.250;38.102;2022-12-18T15:22:33;7.77;78.31
74946;HTU21D;63509;45.250;38.102;2022-12-18T15:25:00;7.75;78.28
74946;HTU21D;63509;45.250;38.102;2022-12-18T15:27:36;7.75;78.29
74946;HTU21D;63509;45.250;38.102;2022-12-18T15:32:42;7.73;78.24
74946;HTU21D;63509;45.250;38.102;2022-12-18T15:37:34;7.69;78.20
74946;HTU21D;63509;45.250;38.102;2022-12-18T15:40:00;7.65;78.16
74946;HTU21D;63509;45.250;38.102;2022-12-18T15:42:28;7.65;78.14
74946;HTU21D;63509;45.250;38.102;2022-12-18T15:45:13;7.63;78.08
74946;HTU21D;63509;45.250;38.102;2022-12-18T15:47:40;7.59;78.08
74946;HTU21D;63509;45.250;38.102;2022-12-18T15:50:08;7.60;78.04
74946;HTU21D;63509;45.250;38.102;2022-12-18T15:52:49;7.58;78.03
74946;HTU21D;63509;45.250;38.102;2022-12-18T15:55:19;7.57;77.95
74946;HTU21D;63509;45.250;38.102;2022-12-18T15:58:04;7.57;77.92
74946;HTU21D;63509;45.250;38.102;2022-12-18T16:00:32;7.54;77.90
74946;HTU21D;63509;45.250;38.102;2022-12-18T16:02:59;7.50;77.86
74946;HTU21D;63509;45.250;38.102;2022-12-18T16:05:26;7.49;77.86
74946;HTU21D;63509;45.250;38.102;2022-12-18T16:07:53;7.47;77.85
74946;HTU21D;63509;45.250;38.102;2022-12-18T16:10:19;7.47;77.84
74946;HTU21D;63509;45.250;38.102;2022-12-18T16:12:45;7.47;77.81
74946;HTU21D;63509;45.250;38.102;2022-12-18T16:15:13;7.48;77.79
74946;HTU21D;63509;45.250;38.102;2022-12-18T16:17:42;7.47;77.75
74946;HTU21D;63509;45.250;38.102;2022-12-18T16:20:14;7.47;77.77
74946;HTU21D;63509;45.250;38.102;2022-12-18T16:22:41;7.44;77.75
74946;HTU21D;63509;45.250;38.102;2022-12-18T16:25:21;7.44;77.79
74946;HTU21D;63509;45.250;38.102;2022-12-18T16:27:48;7.43;77.72
74946;HTU21D;63509;45.250;38.102;2022-12-18T16:30:17;7.44;77.72
74946;HTU21D;63509;45.250;38.102;2022-12-18T16:32:44;7.42;77.63
74946;HTU21D;63509;45.250;38.102;2022-12-18T16:35:12;7.41;77.61
74946;HTU21D;63509;45.250;38.102;2022-12-18T16:37:40;7.41;77.60
74946;HTU21D;63509;45.250;38.102;2022-12-18T16:40:09;7.39;77.55
74946;HTU21D;63509;45.250;38.102;2022-12-18T16:42:36;7.37;77.53
74946;HTU21D;63509;45.250;38.102;2022-12-18T16:45:04;7.33;77.52
74946;HTU21D;63509;45.250;38.102;2022-12-18T16:47:30;7.31;77.43
74946;HTU21D;63509;45.250;38.102;2022-12-18T16:49:56;7.31;77.43
74946;HTU21D;63509;45.250;38.102;2022-12-18T16:52:22;7.31;77.40
74946;HTU21D;63509;45.250;38.102;2022-12-18T16:54:48;7.27;77.32
74946;HTU21D;63509;45.250;38.102;2022-12-18T16:57:17;7.24;77.30
74946;HTU21D;63509;45.250;38.102;2022-12-18T16:59:43;7.23;77.28
74946;HTU21D;63509;45.250;38.102;2022-12-18T17:02:21;7.22;77.31